Time;durP1;ratioP1;P1;durP2;ratioP2;P2;SDS_P1;SDS_P2;PMS_P1;PMS_P2;Temp;Humidity;BMP_temperature;BMP_pressure;BME280_temperature;BME280_humidity;BME280_pressure;Samples;Min_cycle;Max_cycle;Signal;HPM_P1;HPM_P2
2022/01/15 00:01:27;;;;;;;5.43;3.40;;;;;;;3.78;59.91;95052.44;5110288;28;20026;-75
2022/01/15 00:03:53;;;;;;;5.93;3.03;;;;;;;3.79;60.28;95043.84;5118250;27;20043;-75
2022/01/15 00:06:18;;;;;;;6.80;3.33;;;;;;;3.84;59.70;95046.16;5114209;27;20026;-75
2022/01/15 00:08:44;;;;;;;5.47;3.35;;;;;;;3.77;60.39;95050.78;5114208;27;20027;-75
2022/01/15 00:11:10;;;;;;;6.25;3.50;;;;;;;3.80;60.74;95060.91;5097303;27;20105;-75
2022/01/15 00:13:41;;;;;;;6.22;3.80;;;;;;;3.82;60.52;95056.53;5119836;27;20492;-75
2022/01/15 00:16:10;;;;;;;5.97;3.60;;;;;;;3.80;60.41;95050.63;5102039;27;20030;-75
2022/01/15 00:19:03;;;;;;;5.50;3.55;;;;;;;3.67;60.57;95049.59;5126070;27;21985;-75
2022/01/15 00:21:28;;;;;;;6.75;3.88;;;;;;;3.77;60.65;95043.09;5122149;27;20027;-75
2022/01/15 00:23:53;;;;;;;6.50;3.95;;;;;;;3.81;60.55;95057.41;5130408;27;20096;-75
2022/01/15 00:26:19;;;;;;;6.25;4.15;;;;;;;3.81;60.97;95053.09;5111474;27;20027;-75
2022/01/15 00:28:44;;;;;;;7.32;5.07;;;;;;;3.78;60.84;95063.53;5086959;28;20035;-75
2022/01/15 00:31:10;;;;;;;7.55;3.90;;;;;;;3.68;61.45;95051.28;5103217;28;20046;-75
2022/01/15 00:33:35;;;;;;;6.88;4.05;;;;;;;3.71;61.12;95061.41;5103550;28;20032;-75
2022/01/15 00:36:01;;;;;;;5.80;3.55;;;;;;;3.68;61.40;95069.28;5103012;28;20031;-75
2022/01/15 00:38:26;;;;;;;5.97;3.58;;;;;;;3.69;61.51;95078.63;5123587;27;20034;-75
2022/01/15 00:40:52;;;;;;;6.97;3.80;;;;;;;3.65;61.18;95067.69;5131746;27;20035;-75
2022/01/15 00:43:18;;;;;;;7.47;4.05;;;;;;;3.72;61.51;95065.63;5129475;27;20027;-75
2022/01/15 00:45:44;;;;;;;7.90;3.92;;;;;;;3.77;61.28;95079.06;5129880;27;20023;-75
2022/01/15 00:48:09;;;;;;;6.43;3.90;;;;;;;3.73;61.38;95069.84;5128819;27;20023;-75
2022/01/15 00:50:35;;;;;;;6.03;3.95;;;;;;;3.61;61.96;95062.78;5112671;27;20046;-75
2022/01/15 00:53:00;;;;;;;6.43;4.18;;;;;;;3.60;61.82;95074.78;5131457;27;20027;-75
2022/01/15 00:55:25;;;;;;;6.57;4.00;;;;;;;3.56;61.88;95057.84;5112574;28;20062;-75
2022/01/15 00:57:51;;;;;;;6.28;3.80;;;;;;;3.59;61.91;95067.97;5112245;28;20019;-75
2022/01/15 01:00:19;;;;;;;6.70;3.80;;;;;;;3.55;61.86;95051.91;5113080;28;20480;-75
2022/01/15 01:02:44;;;;;;;4.90;3.35;;;;;;;3.69;62.11;95055.50;5127518;27;20110;-75
2022/01/15 01:05:10;;;;;;;5.65;3.38;;;;;;;3.68;61.81;95044.41;5112586;28;20043;-75
2022/01/15 01:07:36;;;;;;;6.18;3.10;;;;;;;3.70;61.88;95057.16;5129947;28;20042;-75
2022/01/15 01:10:21;;;;;;;5.90;3.88;;;;;;;3.75;61.75;95050.84;5129840;28;20039;-75
2022/01/15 01:21:23;;;;;;;7.05;4.25;;;;;;;3.65;62.13;95047.13;5108861;28;20043;-75
2022/01/15 01:23:47;;;;;;;5.47;3.65;;;;;;;3.63;62.10;95061.78;5110150;28;20036;-75
2022/01/15 01:26:42;;;;;;;5.05;3.53;;;;;;;3.61;62.00;95049.94;5110571;28;20506;-75
2022/01/15 01:29:09;;;;;;;5.43;3.70;;;;;;;3.60;61.83;95050.84;5093543;28;20225;-75
2022/01/15 01:31:55;;;;;;;5.03;3.72;;;;;;;3.62;61.98;95056.72;5110285;28;20028;-75
2022/01/15 01:34:21;;;;;;;6.88;4.20;;;;;;;3.65;61.79;95051.41;5109906;28;20589;-75
2022/01/15 01:39:21;;;;;;;5.60;3.70;;;;;;;3.71;62.27;95040.84;5110233;28;20468;-75
2022/01/15 01:42:07;;;;;;;7.07;3.80;;;;;;;3.74;61.50;95027.84;5112608;28;20031;-75
2022/01/15 01:44:38;;;;;;;6.03;3.38;;;;;;;3.70;61.68;95018.59;5099269;28;20492;-75
2022/01/15 01:47:09;;;;;;;5.75;3.55;;;;;;;3.67;61.92;95029.06;5096867;28;20100;-75
2022/01/15 01:49:35;;;;;;;6.55;4.35;;;;;;;3.67;61.44;95016.19;5112308;28;20032;-75
2022/01/15 01:52:00;;;;;;;7.00;4.25;;;;;;;3.66;61.50;95027.41;5113518;28;20054;-75
2022/01/15 01:54:26;;;;;;;7.10;4.25;;;;;;;3.63;61.66;95017.28;5112690;28;20035;-75
2022/01/15 01:56:51;;;;;;;6.90;3.88;;;;;;;3.60;61.85;95025.16;5082803;28;20100;-75
2022/01/15 01:59:17;;;;;;;7.25;4.20;;;;;;;3.62;61.86;95015.59;5130871;27;20432;-75
2022/01/15 02:01:43;;;;;;;6.10;4.30;;;;;;;3.66;61.53;95029.97;5096265;28;20042;-75
2022/01/15 02:04:08;;;;;;;6.47;3.97;;;;;;;3.66;61.29;95035.94;5116021;27;20136;-75
2022/01/15 02:06:35;;;;;;;6.32;4.20;;;;;;;3.65;61.67;95028.28;5118342;27;20031;-76
2022/01/15 02:09:01;;;;;;;8.05;4.78;;;;;;;3.65;61.15;95023.16;5114177;27;20066;-75
2022/01/15 02:11:27;;;;;;;7.60;4.47;;;;;;;3.55;61.31;95020.25;5092520;28;20038;-75
2022/01/15 02:13:52;;;;;;;6.40;4.28;;;;;;;3.62;60.90;95025.88;5125321;27;20035;-75
2022/01/15 02:16:18;;;;;;;6.63;4.20;;;;;;;3.58;60.73;95025.22;5124397;27;20019;-75
2022/01/15 02:18:43;;;;;;;9.18;4.60;;;;;;;3.63;60.65;95028.38;5116211;27;20031;-75
2022/01/15 02:23:46;;;;;;;6.38;3.97;;;;;;;3.71;59.98;95030.56;5113324;28;20031;-75
2022/01/15 02:26:18;;;;;;;6.55;3.92;;;;;;;3.67;60.44;95019.59;5088900;28;20032;-75
2022/01/15 02:28:52;;;;;;;8.13;4.97;;;;;;;3.75;59.88;95026.91;5096583;28;20039;-75
2022/01/15 02:31:17;;;;;;;8.82;4.45;;;;;;;3.69;60.33;95022.09;5090395;28;20038;-75
2022/01/15 02:33:44;;;;;;;9.27;4.55;;;;;;;3.73;60.16;95018.44;5112030;28;20031;-74
2022/01/15 02:36:12;;;;;;;9.68;4.85;;;;;;;3.65;60.42;95020.59;5111395;27;20055;-75
2022/01/15 02:38:38;;;;;;;7.55;4.15;;;;;;;3.65;60.43;95013.72;5113892;27;20028;-75
2022/01/15 02:41:03;;;;;;;11.05;5.88;;;;;;;3.62;60.68;95021.56;5104170;28;20031;-75
2022/01/15 02:43:32;;;;;;;8.93;4.95;;;;;;;3.67;60.58;95031.63;5124957;27;20027;-75
2022/01/15 02:46:07;;;;;;;7.93;4.72;;;;;;;3.67;60.52;95049.59;5133777;27;20171;-75
2022/01/15 02:48:33;;;;;;;7.75;4.10;;;;;;;3.65;60.51;95036.84;5131443;27;20412;-75
2022/01/15 02:50:58;;;;;;;8.63;4.38;;;;;;;3.61;60.59;95024.22;5115550;27;20034;-75
2022/01/15 02:53:24;;;;;;;7.60;4.30;;;;;;;3.57;60.63;95034.69;5098388;27;20023;-75
2022/01/15 02:55:51;;;;;;;7.03;4.15;;;;;;;3.62;60.37;95031.84;5130942;27;20035;-75
2022/01/15 02:58:17;;;;;;;8.65;4.88;;;;;;;3.57;60.30;95037.25;5095447;28;20459;-75
2022/01/15 03:00:43;;;;;;;8.75;5.00;;;;;;;3.52;60.05;95031.50;5112179;27;20049;-75
2022/01/15 03:03:08;;;;;;;8.80;4.63;;;;;;;3.58;59.92;95044.03;5112132;27;20480;-75
2022/01/15 03:05:34;;;;;;;11.43;5.07;;;;;;;3.51;60.40;95050.41;5112839;27;20056;-75
2022/01/15 03:07:59;;;;;;;7.57;4.38;;;;;;;3.43;60.14;95037.13;5114678;27;20416;-75
2022/01/15 03:10:25;;;;;;;8.30;4.97;;;;;;;3.50;60.17;95043.59;5115367;27;20027;-75
2022/01/15 03:12:53;;;;;;;7.43;4.50;;;;;;;3.53;59.82;95040.88;5120668;27;20027;-75
2022/01/15 03:15:19;;;;;;;8.20;4.47;;;;;;;3.53;60.31;95043.44;5119655;27;20492;-75
2022/01/15 03:17:46;;;;;;;8.48;4.60;;;;;;;3.52;60.24;95044.34;5133814;27;20051;-75
2022/01/15 03:20:14;;;;;;;8.40;4.85;;;;;;;3.47;59.68;95028.34;5121895;27;20032;-75
2022/01/15 03:22:40;;;;;;;8.20;5.05;;;;;;;3.42;59.76;95044.91;5128200;27;20039;-75
2022/01/15 03:25:06;;;;;;;10.40;5.45;;;;;;;3.35;59.22;95058.06;5119012;27;20027;-75
2022/01/15 03:27:31;;;;;;;9.00;5.53;;;;;;;3.32;59.02;95050.50;5126816;27;20015;-75
2022/01/15 03:29:57;;;;;;;7.70;4.88;;;;;;;3.32;59.17;95059.97;5087531;27;20035;-75
2022/01/15 03:32:22;;;;;;;8.07;5.13;;;;;;;3.25;58.44;95062.00;5097871;27;20071;-75
2022/01/15 03:34:48;;;;;;;10.02;5.35;;;;;;;3.35;58.03;95063.19;5114178;27;20423;-75
2022/01/15 03:37:13;;;;;;;11.57;5.75;;;;;;;3.41;58.10;95059.47;5130885;27;20400;-75
2022/01/15 03:39:39;;;;;;;9.82;5.43;;;;;;;3.41;58.08;95049.22;5132718;27;20035;-75
2022/01/15 03:42:11;;;;;;;9.02;5.38;;;;;;;3.18;58.44;95052.13;5132772;27;20039;-75
2022/01/15 03:44:37;;;;;;;8.93;5.60;;;;;;;3.24;58.41;95059.50;5107189;28;20027;-75
2022/01/15 03:47:03;;;;;;;9.23;5.68;;;;;;;3.20;58.26;95060.56;5113312;27;20104;-75
2022/01/15 03:49:28;;;;;;;11.80;5.80;;;;;;;3.22;58.98;95074.16;5122659;27;20485;-75
2022/01/15 03:51:54;;;;;;;10.10;5.35;;;;;;;3.22;59.21;95080.13;5112498;28;20027;-75
2022/01/15 03:54:19;;;;;;;8.80;5.68;;;;;;;3.19;59.32;95082.00;5106245;27;20046;-75
2022/01/15 03:56:45;;;;;;;9.73;6.07;;;;;;;3.19;59.80;95082.00;5132899;27;20027;-75
2022/01/15 03:59:10;;;;;;;8.75;5.53;;;;;;;3.06;60.39;95067.19;5131604;27;20035;-75
2022/01/15 04:01:36;;;;;;;8.05;5.00;;;;;;;3.17;59.71;95091.53;5131484;27;20046;-75
2022/01/15 04:04:01;;;;;;;9.23;5.38;;;;;;;3.14;60.41;95101.03;5131803;27;20027;-75
2022/01/15 04:06:26;;;;;;;7.47;5.03;;;;;;;3.20;60.29;95086.22;5120813;27;20024;-75
2022/01/15 04:08:52;;;;;;;9.32;5.45;;;;;;;3.21;60.57;95090.47;5093995;28;20032;-75
2022/01/15 04:11:17;;;;;;;9.98;5.22;;;;;;;3.25;60.50;95099.69;5110921;28;20031;-75
2022/01/15 04:13:43;;;;;;;9.65;5.78;;;;;;;3.22;60.79;95104.97;5111760;28;20024;-75
2022/01/15 04:16:08;;;;;;;9.65;5.22;;;;;;;3.20;60.69;95102.47;5094018;28;20027;-75
2022/01/15 04:18:40;;;;;;;8.65;5.22;;;;;;;3.23;61.18;95125.44;5110688;28;20020;-75
2022/01/15 04:21:05;;;;;;;8.73;5.57;;;;;;;3.12;60.97;95109.72;5111021;28;20035;-75
2022/01/15 04:23:31;;;;;;;9.25;5.40;;;;;;;3.10;61.00;95117.50;5093598;28;20480;-75
2022/01/15 04:25:56;;;;;;;10.05;6.40;;;;;;;3.04;60.77;95122.94;5111980;28;20027;-75
2022/01/15 04:28:22;;;;;;;10.10;6.55;;;;;;;3.04;61.32;95140.91;5110435;28;20047;-75
2022/01/15 04:30:48;;;;;;;11.70;6.85;;;;;;;3.02;61.55;95145.28;5111740;28;20020;-75
2022/01/15 04:33:14;;;;;;;10.00;5.90;;;;;;;3.05;61.24;95145.13;5111694;28;20541;-75
2022/01/15 04:35:40;;;;;;;10.27;6.20;;;;;;;3.01;60.92;95142.75;5110339;28;20035;-75
2022/01/15 04:38:10;;;;;;;12.77;6.72;;;;;;;3.09;60.61;95156.91;5110748;28;20054;-75
2022/01/15 04:40:35;;;;;;;11.40;6.82;;;;;;;3.03;60.72;95154.63;5110995;28;20044;-75
2022/01/15 04:43:01;;;;;;;12.00;6.28;;;;;;;3.06;60.96;95151.91;5122866;27;20026;-75
2022/01/15 04:45:26;;;;;;;11.23;7.20;;;;;;;3.09;60.90;95162.06;5131246;27;20031;-75
2022/01/15 04:47:52;;;;;;;12.65;6.88;;;;;;;3.07;60.20;95161.28;5132465;27;20027;-75
2022/01/15 04:50:18;;;;;;;12.23;6.75;;;;;;;3.02;61.12;95152.97;5131088;27;20020;-75
2022/01/15 04:52:44;;;;;;;11.40;6.95;;;;;;;2.92;61.40;95156.88;5109334;28;20435;-75
2022/01/15 04:55:10;;;;;;;11.23;6.63;;;;;;;2.93;61.14;95161.13;5093298;28;20035;-75
2022/01/15 04:57:36;;;;;;;11.88;7.20;;;;;;;2.89;61.65;95167.28;5093599;28;20063;-75
2022/01/15 05:00:20;;;;;;;13.90;7.80;;;;;;;2.89;61.43;95165.53;5093218;28;20536;-75
2022/01/15 05:02:46;;;;;;;13.82;8.23;;;;;;;2.83;61.81;95165.00;5117283;27;20076;-75
2022/01/15 05:05:11;;;;;;;11.40;8.15;;;;;;;2.86;61.78;95175.97;5114643;27;20071;-75
2022/01/15 05:07:36;;;;;;;11.18;7.20;;;;;;;2.90;61.47;95174.09;5111656;28;20404;-75
2022/01/15 05:10:04;;;;;;;9.57;6.88;;;;;;;2.90;61.43;95166.41;5129854;27;20047;-75
2022/01/15 05:12:41;;;;;;;13.63;7.90;;;;;;;2.81;62.04;95169.38;5131636;27;20023;-75
2022/01/15 05:15:06;;;;;;;11.25;7.25;;;;;;;2.79;62.13;95163.50;5129557;27;20043;-75
2022/01/15 05:17:32;;;;;;;10.60;6.93;;;;;;;2.82;62.22;95189.84;5113662;27;20041;-75
2022/01/15 05:19:57;;;;;;;13.70;8.30;;;;;;;2.75;62.16;95169.66;5129828;27;20024;-75
2022/01/15 05:22:23;;;;;;;13.48;8.38;;;;;;;2.61;63.05;95191.66;5114678;28;20020;-75
2022/01/15 05:24:48;;;;;;;12.10;7.70;;;;;;;2.62;63.22;95198.47;5122161;27;20509;-75
2022/01/15 05:27:14;;;;;;;10.80;7.85;;;;;;;2.66;63.71;95199.97;5104889;28;20061;-75
2022/01/15 05:29:39;;;;;;;13.10;7.82;;;;;;;2.61;63.54;95191.66;5108887;28;20032;-75
2022/01/15 05:32:05;;;;;;;13.32;8.65;;;;;;;2.62;63.50;95195.91;5090071;28;20330;-75
2022/01/15 05:34:31;;;;;;;12.35;8.60;;;;;;;2.64;63.63;95199.22;5104493;28;20046;-75
2022/01/15 05:36:56;;;;;;;14.55;8.93;;;;;;;2.60;63.61;95207.13;5108591;27;20039;-75
2022/01/15 05:39:22;;;;;;;12.93;8.07;;;;;;;2.59;63.57;95208.88;5095039;28;20123;-75
2022/01/15 05:41:47;;;;;;;12.43;7.75;;;;;;;2.59;63.72;95202.88;5087853;28;20443;-75
2022/01/15 05:44:12;;;;;;;13.88;8.20;;;;;;;2.50;63.74;95193.88;5113152;28;20039;-75
2022/01/15 05:46:38;;;;;;;14.43;8.73;;;;;;;2.50;63.46;95190.47;5112764;28;20445;-75
2022/01/15 05:49:03;;;;;;;12.27;8.18;;;;;;;2.53;63.77;95200.59;5120098;27;20078;-75
2022/01/15 05:51:30;;;;;;;12.02;7.93;;;;;;;2.54;63.25;95205.69;5130631;27;20055;-75
2022/01/15 05:54:00;;;;;;;12.93;8.15;;;;;;;2.49;63.44;95196.53;5099343;27;20050;-75
2022/01/15 05:56:26;;;;;;;14.45;8.93;;;;;;;2.45;63.41;95209.50;5116360;27;20027;-75
2022/01/15 05:58:51;;;;;;;16.08;8.35;;;;;;;2.36;63.95;95209.88;5121192;27;20063;-75
2022/01/15 06:01:17;;;;;;;14.88;8.65;;;;;;;2.39;63.64;95206.34;5101701;28;20119;-75
2022/01/15 06:03:42;;;;;;;13.52;8.90;;;;;;;2.38;63.92;95209.81;5112854;27;20469;-75
2022/01/15 06:06:07;;;;;;;14.68;9.50;;;;;;;2.36;64.55;95227.00;5110512;27;20048;-75
2022/01/15 06:08:33;;;;;;;12.88;8.07;;;;;;;2.35;63.59;95225.34;5122167;27;20043;-75
2022/01/15 06:10:58;;;;;;;15.95;9.25;;;;;;;2.36;64.30;95237.25;5115681;27;20027;-75
2022/01/15 06:13:24;;;;;;;15.68;8.93;;;;;;;2.32;64.54;95244.25;5116055;27;20023;-75
2022/01/15 06:15:49;;;;;;;12.05;8.80;;;;;;;2.38;64.11;95255.97;5115201;27;20023;-75
2022/01/15 06:18:15;;;;;;;16.23;9.52;;;;;;;2.31;64.13;95246.88;5116484;27;20024;-75
2022/01/15 06:20:40;;;;;;;12.70;8.88;;;;;;;2.33;64.51;95260.47;5095120;28;20035;-75
2022/01/15 06:23:05;;;;;;;20.00;13.43;;;;;;;2.33;64.96;95258.72;5109815;28;20561;-75
2022/01/15 06:25:31;;;;;;;23.08;13.30;;;;;;;2.29;64.54;95267.47;5095104;28;20037;-75
2022/01/15 06:27:56;;;;;;;30.13;18.98;;;;;;;2.26;65.22;95270.16;5130692;27;20633;-75
2022/01/15 06:30:22;;;;;;;20.38;13.55;;;;;;;2.35;64.43;95261.25;5133237;27;20581;-75
2022/01/15 06:32:47;;;;;;;21.17;14.35;;;;;;;2.35;65.01;95263.81;5131899;27;20408;-75
2022/01/15 06:35:13;;;;;;;23.88;16.00;;;;;;;2.32;65.00;95258.81;5127136;27;20039;-75
2022/01/15 06:37:39;;;;;;;20.80;14.30;;;;;;;2.38;64.43;95268.81;5095813;28;20035;-75
2022/01/15 06:40:05;;;;;;;25.88;17.67;;;;;;;2.35;65.12;95280.03;5110826;28;20070;-75
2022/01/15 06:42:30;;;;;;;49.90;29.55;;;;;;;2.41;64.55;95291.75;5112110;28;20031;-75
2022/01/15 06:44:56;;;;;;;35.10;21.42;;;;;;;2.44;64.46;95286.47;5111226;28;20046;-75
2022/01/15 06:47:21;;;;;;;28.35;18.58;;;;;;;2.46;64.53;95282.13;5095052;28;20027;-75
2022/01/15 06:49:47;;;;;;;40.85;22.73;;;;;;;2.43;64.77;95287.38;5113360;28;20039;-75
2022/01/15 06:52:12;;;;;;;20.08;12.00;;;;;;;2.29;65.04;95287.16;5117433;27;20030;-75
2022/01/15 06:54:37;;;;;;;25.98;16.42;;;;;;;2.30;64.52;95283.69;5101175;27;20448;-75
2022/01/15 06:57:03;;;;;;;37.03;21.40;;;;;;;2.34;64.53;95298.88;5110752;28;20027;-75
2022/01/15 06:59:28;;;;;;;32.00;19.35;;;;;;;2.26;65.12;95290.69;5098333;28;20030;-75
2022/01/15 07:01:54;;;;;;;28.00;17.58;;;;;;;2.26;65.29;95293.25;5117416;27;20035;-75
2022/01/15 07:04:20;;;;;;;18.98;11.65;;;;;;;2.21;64.96;95288.31;5126595;27;20131;-75
2022/01/15 07:06:45;;;;;;;48.15;24.30;;;;;;;2.23;65.11;95295.94;5131205;27;20506;-75
2022/01/15 07:09:11;;;;;;;19.55;12.10;;;;;;;2.21;65.09;95295.16;5119544;27;20028;-75
2022/01/15 07:11:36;;;;;;;22.13;15.60;;;;;;;2.31;64.92;95308.41;5109060;28;20038;-76
2022/01/15 07:14:01;;;;;;;18.90;11.30;;;;;;;2.37;64.94;95305.63;5112034;28;20038;-78
2022/01/15 07:16:27;;;;;;;18.90;12.23;;;;;;;2.43;64.58;95298.47;5112338;28;20526;-78
2022/01/15 07:18:52;;;;;;;18.08;10.77;;;;;;;2.43;64.63;95302.78;5123354;27;20032;-78
2022/01/15 07:21:18;;;;;;;16.33;10.70;;;;;;;2.43;64.86;95313.03;5110439;28;20038;-78
2022/01/15 07:23:43;;;;;;;17.45;10.45;;;;;;;2.40;64.63;95319.13;5127061;27;20072;-78
2022/01/15 07:26:09;;;;;;;18.08;11.45;;;;;;;2.42;65.16;95313.91;5129721;27;20043;-78
2022/01/15 07:28:35;;;;;;;18.85;12.95;;;;;;;2.49;64.36;95315.31;5092043;28;20024;-78
2022/01/15 07:31:00;;;;;;;24.60;13.52;;;;;;;2.40;64.89;95315.72;5112681;28;20026;-78
2022/01/15 07:33:26;;;;;;;34.42;21.75;;;;;;;2.52;64.19;95320.31;5112119;28;20023;-78
2022/01/15 07:35:52;;;;;;;26.33;16.67;;;;;;;2.54;64.54;95328.78;5103298;27;20030;-78
2022/01/15 07:38:17;;;;;;;24.30;14.82;;;;;;;2.50;64.26;95327.25;5114319;28;20476;-78
2022/01/15 07:40:43;;;;;;;22.25;14.27;;;;;;;2.58;63.88;95343.13;5114292;27;20034;-78
2022/01/15 07:43:09;;;;;;;17.77;11.70;;;;;;;2.53;64.05;95349.38;5130841;27;20747;-78
2022/01/15 07:45:35;;;;;;;38.22;19.58;;;;;;;2.50;63.80;95327.25;5092229;28;20036;-78
2022/01/15 07:48:00;;;;;;;42.00;23.08;;;;;;;2.65;64.09;95347.13;5111769;28;20028;-78
2022/01/15 07:50:26;;;;;;;22.90;14.88;;;;;;;2.66;64.24;95342.81;5110640;28;20382;-78
2022/01/15 07:52:52;;;;;;;15.45;11.07;;;;;;;2.62;63.68;95344.69;5077606;28;20063;-78
2022/01/15 07:55:18;;;;;;;22.45;14.38;;;;;;;2.70;63.81;95352.03;5096963;28;20037;-78
2022/01/15 07:57:45;;;;;;;23.70;14.88;;;;;;;2.64;63.68;95360.00;5100089;28;20468;-79
2022/01/15 08:00:15;;;;;;;21.98;13.18;;;;;;;2.63;63.38;95366.03;5129119;27;20035;-78
2022/01/15 08:02:40;;;;;;;24.00;13.15;;;;;;;2.47;63.34;95346.16;5095897;28;20144;-79
2022/01/15 08:05:06;;;;;;;26.70;15.02;;;;;;;2.59;63.62;95361.91;5085152;27;20048;-79
2022/01/15 08:07:32;;;;;;;31.38;23.05;;;;;;;2.69;63.45;95374.28;5109957;28;20400;-80
2022/01/15 08:09:57;;;;;;;20.92;13.60;;;;;;;2.74;63.21;95375.84;5112590;27;20023;-79
2022/01/15 08:12:23;;;;;;;29.63;17.75;;;;;;;2.77;63.11;95370.56;5096637;28;20526;-80
2022/01/15 08:14:49;;;;;;;33.03;22.63;;;;;;;2.66;63.07;95378.72;5111829;27;20035;-80
2022/01/15 08:17:15;;;;;;;27.83;18.98;;;;;;;2.61;62.48;95381.47;5074237;28;20027;-79
2022/01/15 08:19:40;;;;;;;27.20;16.85;;;;;;;2.74;62.67;95398.94;5093020;28;20035;-79
2022/01/15 08:22:06;;;;;;;20.45;13.23;;;;;;;2.73;62.59;95399.81;5110739;28;20485;-80
2022/01/15 08:24:31;;;;;;;29.58;18.40;;;;;;;2.69;62.92;95415.34;5092976;28;20031;-80
2022/01/15 08:26:57;;;;;;;21.15;14.02;;;;;;;2.78;62.48;95431.25;5109822;28;20027;-79
2022/01/15 08:29:22;;;;;;;20.80;12.93;;;;;;;2.70;62.65;95418.72;5092805;28;20051;-79
2022/01/15 08:31:48;;;;;;;20.05;12.95;;;;;;;2.60;61.89;95404.66;5108043;28;20038;-80
2022/01/15 08:34:13;;;;;;;19.50;14.52;;;;;;;2.72;62.11;95424.66;5092759;28;20027;-80
2022/01/15 08:36:38;;;;;;;23.33;14.00;;;;;;;2.69;62.42;95417.91;5076427;28;20035;-79
2022/01/15 08:39:04;;;;;;;18.33;11.80;;;;;;;2.67;62.13;95413.75;5109917;28;20023;-80
2022/01/15 08:41:30;;;;;;;22.67;14.20;;;;;;;2.65;62.33;95418.94;5112285;28;20034;-79
2022/01/15 08:43:55;;;;;;;22.70;14.93;;;;;;;2.60;62.38;95410.59;5097840;28;20035;-80
2022/01/15 08:46:21;;;;;;;24.42;14.23;;;;;;;2.56;62.22;95414.19;5096490;28;20031;-77
2022/01/15 08:48:47;;;;;;;24.13;13.88;;;;;;;2.66;62.39;95432.59;5097334;28;20485;-82
2022/01/15 08:51:12;;;;;;;31.70;18.98;;;;;;;2.59;62.17;95429.47;5097118;28;20464;-78
2022/01/15 08:53:38;;;;;;;32.80;17.08;;;;;;;2.70;61.73;95434.13;5111765;28;20031;-80
2022/01/15 08:56:03;;;;;;;30.73;17.95;;;;;;;2.74;61.53;95438.25;5112925;28;20027;-79
2022/01/15 08:58:29;;;;;;;38.15;22.20;;;;;;;2.73;61.88;95446.84;5118672;28;20035;-78
2022/01/15 09:00:55;;;;;;;33.80;20.05;;;;;;;2.66;61.55;95436.00;5093717;28;20027;-80
2022/01/15 09:03:22;;;;;;;33.42;19.52;;;;;;;2.60;61.39;95425.16;5076807;28;20119;-79
2022/01/15 09:05:47;;;;;;;24.75;15.88;;;;;;;2.83;61.08;95460.13;5110279;28;20048;-79
2022/01/15 09:08:13;;;;;;;49.85;26.13;;;;;;;2.73;60.97;95433.16;5110419;28;20024;-79
2022/01/15 09:10:41;;;;;;;51.15;29.25;;;;;;;2.78;61.25;95452.59;5112103;28;20516;-75
2022/01/15 09:13:10;;;;;;;60.58;32.38;;;;;;;2.68;61.39;95433.38;5118051;27;20028;-77
2022/01/15 09:15:35;;;;;;;73.43;34.95;;;;;;;2.77;61.58;95450.94;5103777;28;20028;-80
2022/01/15 09:18:00;;;;;;;95.03;41.80;;;;;;;2.70;60.76;95434.13;5117108;27;20019;-80
2022/01/15 09:20:26;;;;;;;51.22;25.27;;;;;;;2.74;61.42;95450.25;5093283;28;20039;-80
2022/01/15 09:22:52;;;;;;;63.50;33.42;;;;;;;2.59;61.68;95431.19;5130308;28;20114;-78
2022/01/15 09:25:17;;;;;;;82.05;41.05;;;;;;;2.67;61.76;95463.34;5132319;27;20507;-79
2022/01/15 09:30:26;;;;;;;44.80;23.38;;;;;;;2.75;60.73;95457.03;5131103;28;20057;-79
2022/01/15 09:32:53;;;;;;;59.00;31.98;;;;;;;2.64;61.40;95448.03;5128629;28;20476;-80
2022/01/15 09:35:21;;;;;;;47.65;30.40;;;;;;;2.78;61.32;95447.47;5109925;28;20081;-79
2022/01/15 09:37:47;;;;;;;39.20;26.95;;;;;;;2.86;61.22;95436.88;5119908;28;20031;-80
2022/01/15 09:40:12;;;;;;;28.33;20.25;;;;;;;2.84;60.74;95429.28;5120857;27;20504;-80
2022/01/15 09:42:38;;;;;;;30.75;21.67;;;;;;;3.03;60.84;95437.00;5091929;28;20027;-80
2022/01/15 09:45:04;;;;;;;24.30;16.23;;;;;;;3.10;60.53;95435.84;5100267;28;20036;-79
2022/01/15 09:47:31;;;;;;;30.40;19.13;;;;;;;3.21;60.32;95414.00;5108879;28;20043;-80
2022/01/15 09:49:56;;;;;;;28.08;17.63;;;;;;;3.34;59.95;95422.81;5109463;28;20110;-80
2022/01/15 09:52:22;;;;;;;22.13;15.10;;;;;;;3.41;59.10;95419.06;5091335;28;20474;-80
2022/01/15 09:54:48;;;;;;;23.55;14.73;;;;;;;3.49;58.99;95422.13;5109526;28;20038;-80
2022/01/15 09:57:13;;;;;;;35.88;17.90;;;;;;;3.51;58.71;95412.63;5110524;28;20061;-78
2022/01/15 09:59:39;;;;;;;43.30;27.75;;;;;;;3.56;58.76;95413.22;5117215;28;20043;-79
2022/01/15 10:02:05;;;;;;;28.42;20.38;;;;;;;3.74;58.41;95426.16;5130283;27;20027;-78
2022/01/15 10:04:32;;;;;;;21.88;13.85;;;;;;;3.73;57.57;95434.75;5113085;27;20512;-78
2022/01/15 10:07:20;;;;;;;19.70;12.25;;;;;;;3.85;57.09;95429.06;5116430;27;20027;-78
2022/01/15 10:09:48;;;;;;;22.67;13.23;;;;;;;3.83;57.29;95430.84;5112958;27;20554;-78
2022/01/15 10:12:23;;;;;;;19.25;12.05;;;;;;;3.80;57.60;95428.44;5109258;28;20118;-79
2022/01/15 10:14:49;;;;;;;22.88;15.18;;;;;;;4.01;56.80;95440.28;5112419;28;20035;-78
2022/01/15 10:17:33;;;;;;;20.40;13.32;;;;;;;4.02;56.80;95426.50;5112575;28;20020;-79
2022/01/15 10:19:58;;;;;;;22.08;13.57;;;;;;;4.17;56.18;95432.66;5096259;28;20268;-79
2022/01/15 10:22:25;;;;;;;26.02;14.63;;;;;;;4.10;55.93;95423.59;5094867;28;20051;-78
2022/01/15 10:25:00;;;;;;;30.88;18.38;;;;;;;4.10;56.21;95423.59;5111565;27;20028;-78
2022/01/15 10:27:35;;;;;;;20.20;13.00;;;;;;;4.12;56.00;95415.78;5113470;28;20442;-79
2022/01/15 10:30:11;;;;;;;30.00;18.52;;;;;;;4.32;55.87;95423.38;5078529;28;20057;-79
2022/01/15 10:32:38;;;;;;;19.92;13.10;;;;;;;4.42;55.43;95410.91;5086724;28;20048;-78
2022/01/15 10:35:11;;;;;;;24.45;14.40;;;;;;;4.60;55.37;95412.56;5112780;28;20047;-78
2022/01/15 10:37:48;;;;;;;20.80;14.18;;;;;;;4.56;54.56;95405.91;5113069;28;20020;-78
2022/01/15 10:40:14;;;;;;;21.58;14.10;;;;;;;4.70;55.10;95408.59;5097430;27;20039;-78
2022/01/15 10:42:40;;;;;;;24.92;14.48;;;;;;;4.81;54.23;95405.50;5134502;27;20390;-78
2022/01/15 10:45:12;;;;;;;26.58;14.57;;;;;;;4.66;53.73;95408.84;5099638;28;20063;-78
2022/01/15 10:47:47;;;;;;;67.60;36.83;;;;;;;4.69;54.03;95406.97;5095935;27;20039;-77
2022/01/15 10:50:24;;;;;;;28.88;16.02;;;;;;;4.80;54.07;95393.53;5116828;27;20423;-78
2022/01/15 10:52:50;;;;;;;22.02;13.88;;;;;;;5.04;53.22;95399.19;5120562;27;20032;-78
2022/01/15 10:55:16;;;;;;;18.08;11.20;;;;;;;5.06;53.36;95401.66;5110320;27;20039;-78
2022/01/15 10:57:46;;;;;;;21.70;14.15;;;;;;;5.22;52.84;95412.84;5115816;27;20106;-78
2022/01/15 11:00:37;;;;;;;18.53;10.83;;;;;;;5.21;52.43;95400.03;5099589;27;20469;-79
2022/01/15 11:03:04;;;;;;;18.17;12.38;;;;;;;5.14;52.54;95392.63;5117949;27;20396;-79
2022/01/15 11:05:36;;;;;;;21.73;13.82;;;;;;;5.19;52.15;95405.28;5111307;28;20060;-79
2022/01/15 11:08:21;;;;;;;29.90;19.38;;;;;;;5.22;52.78;95402.53;5112321;28;20039;-79
2022/01/15 11:11:04;;;;;;;33.05;18.58;;;;;;;5.28;52.71;95396.22;5113479;28;20107;-79
2022/01/15 11:13:33;;;;;;;29.33;15.52;;;;;;;5.51;52.04;95408.72;5105331;27;20064;-79
2022/01/15 11:16:05;;;;;;;27.63;14.20;;;;;;;5.58;51.62;95406.66;5133707;27;20081;-79
2022/01/15 11:18:35;;;;;;;21.80;13.82;;;;;;;5.46;52.02;95395.28;5098856;27;20039;-79
2022/01/15 11:21:05;;;;;;;23.45;14.43;;;;;;;5.38;52.30;95387.13;5111420;28;20027;-78
2022/01/15 11:23:31;;;;;;;28.75;15.45;;;;;;;5.50;52.03;95389.03;5095622;28;20035;-79
2022/01/15 11:25:58;;;;;;;31.63;17.67;;;;;;;5.40;52.04;95382.69;5094943;28;20052;-78
2022/01/15 11:28:25;;;;;;;36.50;20.88;;;;;;;5.55;51.95;95388.78;5112224;27;20389;-79
2022/01/15 11:31:10;;;;;;;35.53;17.55;;;;;;;5.64;51.07;95390.03;5097919;28;20059;-78
2022/01/15 11:33:38;;;;;;;26.48;15.43;;;;;;;5.70;51.15;95385.38;5095796;28;20067;-79
2022/01/15 11:36:04;;;;;;;29.10;15.80;;;;;;;5.68;51.56;95379.44;5094743;28;20390;-78
2022/01/15 11:38:43;;;;;;;29.70;17.85;;;;;;;5.66;50.92;95378.72;5113863;27;20026;-79
2022/01/15 11:41:39;;;;;;;29.88;19.05;;;;;;;5.66;51.02;95377.91;5099028;27;20019;-79
2022/01/15 11:44:09;;;;;;;68.15;31.73;;;;;;;5.65;50.83;95378.78;5113373;27;20130;-79
2022/01/15 11:46:48;;;;;;;50.53;26.80;;;;;;;5.71;51.19;95381.03;5101184;28;20032;-79
2022/01/15 11:49:31;;;;;;;51.30;28.95;;;;;;;5.78;50.74;95374.63;5111464;28;20039;-78